createdAt,value
2018-12-20T00:01:00.664Z,975.9
2018-12-20T00:02:05.274Z,975.9
2018-12-20T00:03:06.611Z,975.9
2018-12-20T00:04:07.858Z,975.9
2018-12-20T00:05:09.241Z,975.9
2018-12-20T00:06:10.639Z,976.1
2018-12-20T00:07:12.035Z,976
2018-12-20T00:08:13.327Z,976
2018-12-20T00:09:14.650Z,976
2018-12-20T00:10:16.097Z,976
2018-12-20T00:11:20.169Z,976
2018-12-20T00:12:21.456Z,976.1
2018-12-20T00:13:25.181Z,976
2018-12-20T00:14:30.772Z,976
2018-12-20T00:15:32.127Z,976
2018-12-20T00:16:33.429Z,976
2018-12-20T00:17:34.689Z,976
2018-12-20T00:18:35.979Z,976
2018-12-20T00:19:37.265Z,976
2018-12-20T00:20:39.810Z,975.8
2018-12-20T00:21:41.318Z,976.1
2018-12-20T00:22:42.721Z,976
2018-12-20T00:23:44.012Z,976
2018-12-20T00:24:45.299Z,975.9
2018-12-20T00:25:46.877Z,975.9
2018-12-20T00:26:48.144Z,975.9
2018-12-20T00:27:49.380Z,975.9
2018-12-20T00:28:50.634Z,975.9
2018-12-20T00:29:51.978Z,975.9
2018-12-20T00:30:53.339Z,975.9
2018-12-20T00:31:54.783Z,975.8
2018-12-20T00:32:56.508Z,975.9
2018-12-20T00:33:58.004Z,975.9
2018-12-20T00:34:59.489Z,975.9
2018-12-20T00:36:00.988Z,975.9
2018-12-20T00:37:02.493Z,975.9
2018-12-20T00:38:03.767Z,976
2018-12-20T00:39:05.142Z,975.9
2018-12-20T00:40:07.805Z,976
2018-12-20T00:41:09.095Z,976
2018-12-20T00:42:10.341Z,976.1
2018-12-20T00:43:11.587Z,976
2018-12-20T00:44:12.901Z,976
2018-12-20T00:45:14.154Z,976
2018-12-20T00:46:15.503Z,976
2018-12-20T00:47:16.782Z,976
2018-12-20T00:48:18.147Z,976.1
2018-12-20T00:49:19.542Z,976.1
2018-12-20T00:50:23.065Z,976.1
2018-12-20T00:51:24.416Z,976.1
2018-12-20T00:52:25.807Z,976.1
2018-12-20T00:53:27.169Z,976
2018-12-20T00:54:28.406Z,976.1
2018-12-20T00:55:29.853Z,976
2018-12-20T00:56:31.334Z,976.1
2018-12-20T00:57:32.755Z,976.1
2018-12-20T00:58:34.016Z,976.2
2018-12-20T00:59:35.458Z,976.1
2018-12-20T01:00:38.489Z,976.1
2018-12-20T01:01:39.816Z,976.2
2018-12-20T01:02:41.301Z,976.2
2018-12-20T01:03:42.560Z,976.2
2018-12-20T01:04:43.971Z,976.2
2018-12-20T01:05:45.228Z,976.2
2018-12-20T01:06:46.533Z,976.2
2018-12-20T01:07:47.892Z,976.2
2018-12-20T01:08:49.303Z,976.1
2018-12-20T01:09:50.570Z,976.1
2018-12-20T01:10:52.030Z,976.2
2018-12-20T01:11:53.328Z,976.2
2018-12-20T01:12:54.632Z,976.1
2018-12-20T01:13:56.035Z,976.1
2018-12-20T01:14:57.399Z,976.1
2018-12-20T01:15:58.794Z,976.2
2018-12-20T01:17:00.419Z,976
2018-12-20T01:18:01.859Z,976.2
2018-12-20T01:19:03.265Z,976.3
2018-12-20T01:20:04.703Z,976.2
2018-12-20T01:21:06.263Z,976.2
2018-12-20T01:22:08.133Z,976.2
2018-12-20T01:23:09.500Z,976.3
2018-12-20T01:24:10.938Z,976.2
2018-12-20T01:25:12.292Z,976.2
2018-12-20T01:26:13.641Z,976.3
2018-12-20T01:27:15.100Z,976.1
2018-12-20T01:28:16.549Z,976.3
2018-12-20T01:29:17.773Z,976.3
2018-12-20T01:30:19.218Z,976.3
2018-12-20T01:31:20.511Z,976.4
2018-12-20T01:32:21.963Z,976.3
2018-12-20T01:33:23.542Z,976.3
2018-12-20T01:34:24.875Z,976.2
2018-12-20T01:35:26.445Z,976.2
2018-12-20T01:36:27.999Z,976.3
2018-12-20T01:37:29.365Z,976.3
2018-12-20T01:38:30.962Z,976.3
2018-12-20T01:39:32.358Z,976.3
2018-12-20T01:40:34.024Z,976.1
2018-12-20T01:41:35.271Z,976.2
2018-12-20T01:42:36.757Z,976.2
2018-12-20T01:43:38.154Z,976.2
2018-12-20T01:44:39.727Z,976.3
2018-12-20T01:45:41.138Z,976.3
2018-12-20T01:46:42.573Z,976.3
2018-12-20T01:47:44.140Z,976.3
2018-12-20T01:48:45.659Z,976.4
2018-12-20T01:49:47.143Z,976.3
2018-12-20T01:50:51.116Z,976.4
2018-12-20T01:51:52.655Z,976.4
2018-12-20T01:52:53.999Z,976.5
2018-12-20T01:53:55.482Z,976.5
2018-12-20T01:54:57.099Z,976.4
2018-12-20T01:55:58.461Z,976.4
2018-12-20T01:56:59.879Z,976.4
2018-12-20T01:58:01.833Z,976.5
2018-12-20T01:59:03.381Z,976.5
2018-12-20T02:00:04.872Z,976.4
2018-12-20T02:01:06.295Z,976.4
2018-12-20T02:02:07.730Z,976.4
2018-12-20T02:03:09.755Z,976.5
2018-12-20T02:04:11.169Z,976.4
2018-12-20T02:05:12.706Z,976.4
2018-12-20T02:06:14.027Z,976.4
2018-12-20T02:07:15.377Z,976.4
2018-12-20T02:08:16.759Z,976.4
2018-12-20T02:09:18.211Z,976.4
2018-12-20T02:10:19.685Z,976
2018-12-20T02:11:21.356Z,976.4
2018-12-20T02:12:23.178Z,976.5
2018-12-20T02:13:24.978Z,976.4
2018-12-20T02:14:26.431Z,976.3
2018-12-20T02:15:28.007Z,976.5
2018-12-20T02:16:29.353Z,976.4
2018-12-20T02:17:30.916Z,976.4
2018-12-20T02:18:32.394Z,976.5
2018-12-20T02:19:33.738Z,976.4
2018-12-20T02:20:35.000Z,976.4
2018-12-20T02:21:36.536Z,976.4
2018-12-20T02:22:38.100Z,976.3
2018-12-20T02:23:39.448Z,976.4
2018-12-20T02:24:40.707Z,976.4
2018-12-20T02:25:42.217Z,976.4
2018-12-20T02:26:43.703Z,976.3
2018-12-20T02:27:45.394Z,976.3
2018-12-20T02:28:47.188Z,976.3
2018-12-20T02:29:48.737Z,976.3
2018-12-20T02:30:50.396Z,976.3
2018-12-20T02:31:51.676Z,976.3
2018-12-20T02:32:53.019Z,976.3
2018-12-20T02:33:55.006Z,976.3
2018-12-20T02:34:56.407Z,976.3
2018-12-20T02:35:57.651Z,976.2
2018-12-20T02:36:59.048Z,976.3
2018-12-20T02:38:00.637Z,976.2
2018-12-20T02:39:02.199Z,976.2
2018-12-20T02:40:06.460Z,976.2
2018-12-20T02:41:12.500Z,976.2
2018-12-20T02:42:13.899Z,976.2
2018-12-20T02:43:15.372Z,976.3
2018-12-20T02:44:16.984Z,976.2
2018-12-20T02:45:18.893Z,976.2
2018-12-20T02:46:20.498Z,976
2018-12-20T02:47:21.840Z,976.1
2018-12-20T02:48:23.418Z,976.2
2018-12-20T02:49:25.205Z,976.1
2018-12-20T02:50:26.508Z,976.2
2018-12-20T02:51:28.052Z,976.1
2018-12-20T02:52:29.362Z,976.1
2018-12-20T02:53:31.175Z,976.1
2018-12-20T02:54:32.935Z,976.2
2018-12-20T02:55:34.464Z,976.1
2018-12-20T02:56:36.045Z,976.2
2018-12-20T02:57:37.878Z,976.1
2018-12-20T02:58:39.900Z,976.2
2018-12-20T02:59:41.211Z,976.2
2018-12-20T03:00:42.460Z,976.1
2018-12-20T03:01:43.778Z,976.2
2018-12-20T03:02:45.214Z,976.2
2018-12-20T03:03:46.892Z,976.1
2018-12-20T03:04:50.071Z,976.1
2018-12-20T03:05:51.597Z,976.2
2018-12-20T03:06:52.954Z,976.2
2018-12-20T03:07:54.501Z,976.2
2018-12-20T03:08:56.111Z,976.2
2018-12-20T03:09:58.607Z,976.2
2018-12-20T03:10:59.938Z,976.2
2018-12-20T03:12:01.187Z,976.2
2018-12-20T03:13:02.684Z,976.1
2018-12-20T03:14:04.269Z,976.1
2018-12-20T03:15:05.737Z,976.1
2018-12-20T03:16:07.051Z,976.1
2018-12-20T03:17:08.481Z,976.1
2018-12-20T03:18:10.168Z,976.1
2018-12-20T03:19:11.784Z,976
2018-12-20T03:20:13.176Z,976.1
2018-12-20T03:21:14.527Z,976.1
2018-12-20T03:22:16.264Z,976.1
2018-12-20T03:23:17.641Z,976.1
2018-12-20T03:24:19.177Z,976
2018-12-20T03:25:20.870Z,976.1
2018-12-20T03:26:22.143Z,976.1
2018-12-20T03:27:23.766Z,976.1
2018-12-20T03:28:25.382Z,976.2
2018-12-20T03:29:27.290Z,976.1
2018-12-20T03:30:28.672Z,976.1
2018-12-20T03:31:30.486Z,976.1
2018-12-20T03:32:31.816Z,976.1
2018-12-20T03:33:33.071Z,976
2018-12-20T03:34:34.301Z,976
2018-12-20T03:35:35.575Z,976.1
2018-12-20T03:36:36.954Z,976
2018-12-20T03:37:38.616Z,976.1
2018-12-20T03:38:40.155Z,976.1
2018-12-20T03:39:41.600Z,976.1
2018-12-20T03:40:43.339Z,976
2018-12-20T03:41:45.141Z,976
2018-12-20T03:42:46.874Z,976
2018-12-20T03:43:48.582Z,976
2018-12-20T03:44:50.153Z,976
2018-12-20T03:45:51.795Z,976
2018-12-20T03:46:53.051Z,976
2018-12-20T03:47:54.463Z,976
2018-12-20T03:48:58.373Z,975.9
2018-12-20T03:49:59.877Z,975.9
2018-12-20T03:51:01.660Z,975.9
2018-12-20T03:52:03.197Z,975.7
2018-12-20T03:53:04.769Z,975.9
2018-12-20T03:54:06.064Z,975.9
2018-12-20T03:55:07.337Z,975.8
2018-12-20T03:56:09.429Z,975.8
2018-12-20T03:57:11.056Z,975.7
2018-12-20T03:58:17.461Z,975.9
2018-12-20T03:59:19.003Z,975.9
2018-12-20T04:00:20.451Z,975.9
2018-12-20T04:01:22.331Z,975.9
2018-12-20T04:02:23.833Z,976
2018-12-20T04:03:25.293Z,975.9
2018-12-20T04:04:27.025Z,976
2018-12-20T04:05:28.674Z,976
2018-12-20T04:06:30.328Z,976.1
2018-12-20T04:07:31.759Z,976
2018-12-20T04:08:33.434Z,976
2018-12-20T04:09:35.049Z,976
2018-12-20T04:10:36.584Z,976
2018-12-20T04:11:38.119Z,976
2018-12-20T04:12:39.392Z,976
2018-12-20T04:13:40.810Z,976
2018-12-20T04:14:42.569Z,975.9
2018-12-20T04:15:44.057Z,975.9
2018-12-20T04:16:45.746Z,976
2018-12-20T04:17:47.640Z,976
2018-12-20T04:18:49.077Z,975.9
2018-12-20T04:19:50.393Z,975.9
2018-12-20T04:20:51.903Z,975.8
2018-12-20T04:21:54.580Z,975.9
2018-12-20T04:22:56.227Z,975.9
2018-12-20T04:23:57.995Z,975.8
2018-12-20T04:24:59.519Z,975.9
2018-12-20T04:26:02.103Z,975.9
2018-12-20T04:27:03.821Z,975.9
2018-12-20T04:28:05.668Z,976
2018-12-20T04:29:07.016Z,976
2018-12-20T04:30:09.111Z,975.9
2018-12-20T04:31:10.494Z,975.9
2018-12-20T04:32:12.260Z,975.9
2018-12-20T04:33:14.116Z,976
2018-12-20T04:34:15.772Z,975.9
2018-12-20T04:35:17.050Z,975.9
2018-12-20T04:36:18.543Z,975.9
2018-12-20T04:37:20.266Z,976
2018-12-20T04:38:22.114Z,976
2018-12-20T04:39:23.678Z,976
2018-12-20T04:40:25.554Z,976
2018-12-20T04:41:27.044Z,976.1
2018-12-20T04:42:28.514Z,976.1
2018-12-20T04:43:29.759Z,976.1
2018-12-20T04:44:31.486Z,976.2
2018-12-20T04:45:32.890Z,976.2
2018-12-20T04:46:34.901Z,976.2
2018-12-20T04:47:36.430Z,976.2
2018-12-20T04:48:38.428Z,976.2
2018-12-20T04:49:40.147Z,976.2
2018-12-20T04:50:41.485Z,976.2
2018-12-20T04:51:43.264Z,976.1
2018-12-20T04:52:44.962Z,976.2
2018-12-20T04:53:46.241Z,976.2
2018-12-20T04:54:47.822Z,976.2
2018-12-20T04:55:49.245Z,976.2
2018-12-20T04:56:50.806Z,976.2
2018-12-20T04:57:52.185Z,976.1
2018-12-20T04:58:53.743Z,976.1
2018-12-20T04:59:55.473Z,976.2
2018-12-20T05:00:57.138Z,976.2
2018-12-20T05:01:58.544Z,976.2
2018-12-20T05:03:00.518Z,976.2
2018-12-20T05:04:02.486Z,976.2
2018-12-20T05:05:03.859Z,976.2
2018-12-20T05:06:05.231Z,976.2
2018-12-20T05:07:06.800Z,976.2
2018-12-20T05:08:08.192Z,976.2
2018-12-20T05:09:09.762Z,976.2
2018-12-20T05:10:11.282Z,976.3
2018-12-20T05:11:12.859Z,976.2
2018-12-20T05:12:14.146Z,976.3
2018-12-20T05:13:15.997Z,976.3
2018-12-20T05:14:17.516Z,976.4
2018-12-20T05:15:19.051Z,976.3
2018-12-20T05:16:21.129Z,976.3
2018-12-20T05:17:22.468Z,976.3
2018-12-20T05:18:23.728Z,976.3
2018-12-20T05:19:25.581Z,976.3
2018-12-20T05:20:26.942Z,976.2
2018-12-20T05:21:28.468Z,976.4
2018-12-20T05:22:30.081Z,976.4
2018-12-20T05:23:32.003Z,976.4
2018-12-20T05:24:33.714Z,976.4
2018-12-20T05:25:35.222Z,975.8
2018-12-20T05:26:36.756Z,976.3
2018-12-20T05:27:38.003Z,976.3
2018-12-20T05:28:39.277Z,976.2
2018-12-20T05:29:40.526Z,976.2
2018-12-20T05:30:41.809Z,976.3
2018-12-20T05:31:43.507Z,976.3
2018-12-20T05:32:45.211Z,976.3
2018-12-20T05:33:46.945Z,976.3
2018-12-20T05:34:48.354Z,976.3
2018-12-20T05:35:49.929Z,976.3
2018-12-20T05:36:52.458Z,976.3
2018-12-20T05:37:53.764Z,976.3
2018-12-20T05:38:55.036Z,976.3
2018-12-20T05:39:56.683Z,976.3
2018-12-20T05:40:58.128Z,976.3
2018-12-20T05:41:59.539Z,976.3
2018-12-20T05:43:00.780Z,976.2
2018-12-20T05:44:02.666Z,976.2
2018-12-20T05:45:04.353Z,976.3
2018-12-20T05:46:05.657Z,976.3
2018-12-20T05:47:07.166Z,976.2
2018-12-20T05:48:08.779Z,976.2
2018-12-20T05:49:10.600Z,976.3
2018-12-20T05:50:12.069Z,976
2018-12-20T05:51:13.336Z,976.2
2018-12-20T05:52:14.607Z,976.2
2018-12-20T05:53:16.266Z,976.3
2018-12-20T05:54:18.152Z,976.3
2018-12-20T05:55:19.991Z,976.3
2018-12-20T05:56:21.739Z,976.3
2018-12-20T05:57:25.720Z,976.2
2018-12-20T05:58:27.548Z,976.2
2018-12-20T05:59:30.163Z,976.2
2018-12-20T06:00:31.428Z,976.3
2018-12-20T06:01:32.835Z,975.7
2018-12-20T06:02:34.306Z,976.4
2018-12-20T06:03:35.874Z,976.4
2018-12-20T06:04:37.242Z,976.3
2018-12-20T06:05:39.270Z,976.4
2018-12-20T06:06:40.781Z,976.4
2018-12-20T06:07:42.362Z,976.4
2018-12-20T06:08:43.676Z,976.4
2018-12-20T06:09:45.057Z,976.2
2018-12-20T06:10:46.297Z,976.4
2018-12-20T06:11:47.707Z,976.4
2018-12-20T06:12:49.404Z,976.4
2018-12-20T06:13:51.195Z,976.2
2018-12-20T06:14:56.292Z,976.4
2018-12-20T06:16:00.682Z,976.4
2018-12-20T06:17:05.168Z,976.4
2018-12-20T06:18:06.429Z,976.5
2018-12-20T06:19:07.879Z,976.5
2018-12-20T06:20:09.245Z,976.4
2018-12-20T06:21:11.103Z,976.4
2018-12-20T06:22:12.484Z,976.4
2018-12-20T06:23:14.389Z,976.4
2018-12-20T06:24:15.744Z,976.5
2018-12-20T06:25:17.011Z,976.4
2018-12-20T06:26:18.263Z,976.4
2018-12-20T06:27:19.509Z,976.3
2018-12-20T06:28:20.932Z,976.5
2018-12-20T06:29:28.187Z,976.5
2018-12-20T06:30:29.776Z,976.5
2018-12-20T06:31:31.051Z,976.5
2018-12-20T06:32:32.296Z,976.5
2018-12-20T06:33:33.536Z,976.5
2018-12-20T06:34:34.780Z,976.4
2018-12-20T06:35:36.073Z,976.4
2018-12-20T06:36:37.329Z,976.4
2018-12-20T06:37:38.781Z,976.4
2018-12-20T06:38:43.052Z,976.4
2018-12-20T06:39:44.426Z,976.4
2018-12-20T06:40:45.935Z,976.4
2018-12-20T06:41:47.274Z,976.3
2018-12-20T06:42:49.183Z,976.4
2018-12-20T06:43:50.439Z,976.4
2018-12-20T06:44:51.724Z,976.3
2018-12-20T06:45:55.321Z,976.3
2018-12-20T06:46:56.704Z,976.3
2018-12-20T06:47:58.399Z,976.3
2018-12-20T06:48:59.671Z,976.3
2018-12-20T06:50:00.914Z,976.3
2018-12-20T06:51:02.224Z,976.4
2018-12-20T06:52:03.516Z,976.3
2018-12-20T06:53:04.905Z,976.3
2018-12-20T06:54:06.295Z,976.3
2018-12-20T06:55:07.545Z,976.3
2018-12-20T06:56:08.895Z,976.3
2018-12-20T06:57:10.207Z,976.2
2018-12-20T06:58:11.491Z,976.3
2018-12-20T06:59:12.732Z,976.3
2018-12-20T07:00:13.990Z,976.3
2018-12-20T07:01:17.680Z,976.3
2018-12-20T07:02:19.164Z,976.3
2018-12-20T07:03:20.602Z,976.2
2018-12-20T07:04:21.867Z,976.2
2018-12-20T07:05:23.122Z,976.3
2018-12-20T07:06:24.395Z,976.2
2018-12-20T07:07:25.667Z,975.9
2018-12-20T07:08:26.930Z,976.3
2018-12-20T07:09:28.185Z,976.3
2018-12-20T07:10:29.430Z,976.3
2018-12-20T07:11:30.713Z,976.3
2018-12-20T07:12:31.961Z,976.3
2018-12-20T07:13:33.238Z,976.3
2018-12-20T07:14:34.470Z,976.5
2018-12-20T07:15:35.744Z,976.4
2018-12-20T07:16:37.033Z,976.4
2018-12-20T07:17:38.295Z,976.4
2018-12-20T07:18:39.546Z,976.4
2018-12-20T07:19:40.812Z,976.4
2018-12-20T07:20:42.436Z,976.4
2018-12-20T07:21:44.259Z,976.4
2018-12-20T07:22:49.152Z,976.4
2018-12-20T07:23:53.213Z,976.5
2018-12-20T07:24:54.471Z,976.3
2018-12-20T07:25:55.743Z,976.4
2018-12-20T07:26:57.046Z,976.4
2018-12-20T07:27:58.324Z,976.4
2018-12-20T07:28:59.584Z,976.4
2018-12-20T07:30:00.879Z,976.4
2018-12-20T07:31:05.606Z,976.4
2018-12-20T07:32:07.291Z,976.4
2018-12-20T07:33:08.618Z,976.4
2018-12-20T07:34:16.225Z,976.4
2018-12-20T07:35:17.555Z,976.4
2018-12-20T07:36:18.811Z,976.4
2018-12-20T07:37:20.235Z,976.4
2018-12-20T07:38:22.264Z,976.4
2018-12-20T07:39:24.048Z,976.3
2018-12-20T07:40:26.654Z,976.4
2018-12-20T07:41:28.166Z,976.3
2018-12-20T07:42:29.502Z,976.4
2018-12-20T07:43:30.807Z,976.4
2018-12-20T07:44:32.059Z,976.4
2018-12-20T07:45:33.306Z,976.4
2018-12-20T07:46:38.682Z,976.3
2018-12-20T07:47:41.562Z,976.4
2018-12-20T07:48:42.819Z,976.4
2018-12-20T07:49:44.060Z,976.4
2018-12-20T07:50:45.301Z,976.4
2018-12-20T07:51:46.580Z,976.3
2018-12-20T07:52:47.908Z,976.4
2018-12-20T07:53:49.199Z,976.4
2018-12-20T07:54:50.464Z,976.4
2018-12-20T07:55:51.728Z,976.4
2018-12-20T07:56:53.043Z,976.5
2018-12-20T07:57:54.566Z,976.5
2018-12-20T07:58:55.836Z,976.4
2018-12-20T07:59:57.568Z,976.4
2018-12-20T08:00:58.795Z,976.5
2018-12-20T08:02:00.620Z,976.4
2018-12-20T08:03:01.952Z,976.5
2018-12-20T08:04:04.206Z,976.6
2018-12-20T08:05:05.704Z,976.6
2018-12-20T08:06:07.321Z,976.6
2018-12-20T08:07:08.916Z,976.6
2018-12-20T08:08:13.198Z,976.6
2018-12-20T08:09:14.495Z,976.5
2018-12-20T08:10:15.928Z,976.6
2018-12-20T08:11:17.281Z,976.5
2018-12-20T08:12:21.364Z,976.4
2018-12-20T08:13:22.967Z,976.5
2018-12-20T08:14:24.279Z,976.5
2018-12-20T08:15:25.532Z,976.5
2018-12-20T08:16:26.806Z,976.5
2018-12-20T08:17:28.062Z,976.6
2018-12-20T08:18:29.385Z,976.4
2018-12-20T08:19:37.087Z,976.4
2018-12-20T08:20:38.343Z,976.3
2018-12-20T08:21:42.852Z,976.4
2018-12-20T08:22:46.252Z,976.5
2018-12-20T08:23:49.796Z,976.5
2018-12-20T08:24:51.197Z,976.5
2018-12-20T08:25:52.473Z,976.4
2018-12-20T08:26:53.752Z,976.5
2018-12-20T08:27:55.025Z,976.5
2018-12-20T08:28:56.338Z,976.4
2018-12-20T08:29:59.159Z,976.6
2018-12-20T08:31:00.451Z,976.2
2018-12-20T08:32:01.779Z,976.4
2018-12-20T08:33:03.065Z,976.4
2018-12-20T08:34:04.445Z,976.6
2018-12-20T08:35:05.814Z,976.5
2018-12-20T08:36:07.297Z,976.5
2018-12-20T08:37:08.607Z,976.5
2018-12-20T08:38:09.865Z,976.6
2018-12-20T08:39:11.314Z,976.6
2018-12-20T08:40:12.580Z,976.5
2018-12-20T08:41:13.825Z,976.5
2018-12-20T08:42:15.104Z,976.5
2018-12-20T08:43:16.387Z,976.6
2018-12-20T08:44:17.676Z,976.6
2018-12-20T08:45:18.921Z,976.6
2018-12-20T08:46:22.312Z,976.6
2018-12-20T08:47:24.949Z,976.5
2018-12-20T08:48:26.234Z,976.5
2018-12-20T08:49:27.578Z,976.5
2018-12-20T08:50:28.842Z,976.6
2018-12-20T08:51:33.342Z,976.5
2018-12-20T08:52:37.407Z,976.4
2018-12-20T08:53:42.226Z,976.4
2018-12-20T08:54:43.520Z,976.4
2018-12-20T08:55:44.802Z,976.4
2018-12-20T08:56:48.700Z,976.5
2018-12-20T08:57:49.954Z,976.5
2018-12-20T08:58:51.631Z,976.5
2018-12-20T08:59:52.952Z,976.5
2018-12-20T09:00:54.227Z,976.5
2018-12-20T09:01:56.156Z,976.5
2018-12-20T09:02:57.468Z,976.6
2018-12-20T09:03:58.743Z,976.6
2018-12-20T09:05:00.293Z,976.6
2018-12-20T09:06:01.789Z,976.6
2018-12-20T09:07:03.040Z,976.6
2018-12-20T09:08:07.125Z,976.5
2018-12-20T09:09:08.690Z,976.5
2018-12-20T09:10:10.001Z,976.6
2018-12-20T09:11:11.257Z,976.6
2018-12-20T09:12:13.032Z,976.6
2018-12-20T09:13:14.343Z,976.6
2018-12-20T09:14:17.082Z,976.6
2018-12-20T09:15:18.359Z,976.6
2018-12-20T09:16:21.792Z,976.6
2018-12-20T09:17:25.933Z,976.6
2018-12-20T09:18:28.013Z,976.6
2018-12-20T09:19:29.266Z,976.6
2018-12-20T09:20:33.592Z,976.6
2018-12-20T09:21:34.862Z,976.6
2018-12-20T09:22:36.285Z,976.6
2018-12-20T09:23:37.607Z,976.6
2018-12-20T09:24:38.947Z,976.7
2018-12-20T09:25:42.610Z,976.7
2018-12-20T09:26:44.920Z,976.7
2018-12-20T09:27:46.288Z,976.7
2018-12-20T09:28:49.227Z,976.7
2018-12-20T09:29:50.521Z,976.7
2018-12-20T09:30:52.080Z,976.7
2018-12-20T09:31:54.060Z,976.7
2018-12-20T09:32:55.368Z,976.7
2018-12-20T09:33:58.300Z,976.7
2018-12-20T09:34:59.695Z,976.7
2018-12-20T09:36:01.007Z,976.7
2018-12-20T09:37:02.427Z,976.5
2018-12-20T09:38:03.684Z,976.6
2018-12-20T09:39:05.276Z,976.7
2018-12-20T09:40:08.511Z,976.7
2018-12-20T09:41:11.048Z,976.7
2018-12-20T09:42:12.634Z,976.6
2018-12-20T09:43:16.483Z,976.6
2018-12-20T09:44:17.777Z,976.7
2018-12-20T09:45:19.069Z,976.6
2018-12-20T09:46:20.722Z,976.7
2018-12-20T09:47:22.052Z,976.7
2018-12-20T09:48:23.329Z,976.8
2018-12-20T09:49:24.986Z,976.7
2018-12-20T09:50:29.366Z,976.7
2018-12-20T09:51:31.016Z,976.8
2018-12-20T09:52:32.350Z,976.7
2018-12-20T09:53:33.721Z,976.8
2018-12-20T09:54:35.295Z,976.8
2018-12-20T09:55:38.795Z,976.9
2018-12-20T09:56:40.746Z,976.8
2018-12-20T09:57:42.007Z,976.7
2018-12-20T09:58:43.279Z,976.8
2018-12-20T09:59:44.589Z,976.8
2018-12-20T10:00:45.894Z,976.7
2018-12-20T10:01:47.342Z,976.7
2018-12-20T10:02:48.855Z,976.7
2018-12-20T10:03:50.321Z,976.6
2018-12-20T10:04:51.858Z,976.7
2018-12-20T10:05:56.376Z,976.6
2018-12-20T10:06:57.697Z,976.5
2018-12-20T10:07:59.358Z,976.5
2018-12-20T10:09:00.639Z,976.4
2018-12-20T10:10:03.061Z,976.6
2018-12-20T10:11:04.614Z,976.5
2018-12-20T10:12:07.348Z,976.5
2018-12-20T10:13:08.745Z,976.5
2018-12-20T10:14:10.003Z,976.5
2018-12-20T10:15:11.266Z,976.5
2018-12-20T10:16:12.532Z,976.5
2018-12-20T10:17:20.909Z,976.6
2018-12-20T10:18:28.071Z,976.6
2018-12-20T10:19:32.152Z,976.5
2018-12-20T10:20:36.322Z,976.5
2018-12-20T10:21:37.627Z,976.5
2018-12-20T10:22:38.947Z,976.5
2018-12-20T10:23:45.327Z,976.6
2018-12-20T10:24:50.865Z,976.5
2018-12-20T10:25:52.270Z,976.5
2018-12-20T10:26:54.174Z,976.5
2018-12-20T10:27:58.229Z,976.5
2018-12-20T10:28:59.528Z,976.5
2018-12-20T10:30:00.790Z,976.5
2018-12-20T10:31:12.596Z,976.5
2018-12-20T10:32:13.969Z,976.5
2018-12-20T10:33:15.253Z,976.4
2018-12-20T10:34:16.526Z,976.4
2018-12-20T10:35:20.115Z,976.3
2018-12-20T10:36:21.390Z,976.4
2018-12-20T10:37:22.660Z,976.4
2018-12-20T10:38:28.996Z,976.3
2018-12-20T10:39:30.295Z,976.2
2018-12-20T10:40:32.082Z,976.4
2018-12-20T10:41:34.223Z,976.3
2018-12-20T10:42:35.818Z,976.4
2018-12-20T10:43:40.042Z,976.2
2018-12-20T10:44:42.519Z,976.3
2018-12-20T10:45:44.327Z,976.4
2018-12-20T10:46:49.085Z,976.4
2018-12-20T10:47:50.716Z,976.3
2018-12-20T10:48:52.306Z,976.3
2018-12-20T10:49:53.858Z,976.3
2018-12-20T10:50:55.109Z,976.3
2018-12-20T10:51:56.617Z,976.3
2018-12-20T10:52:57.874Z,976.3
2018-12-20T10:54:02.639Z,976.2
2018-12-20T10:55:05.208Z,976.3
2018-12-20T10:56:06.484Z,976.4
2018-12-20T10:57:10.282Z,976.3
2018-12-20T10:58:11.554Z,976.2
2018-12-20T10:59:14.195Z,976.3
2018-12-20T11:00:15.764Z,976.2
2018-12-20T11:01:20.231Z,976.2
2018-12-20T11:02:21.520Z,976.2
2018-12-20T11:03:23.087Z,976.3
2018-12-20T11:04:24.607Z,976.2
2018-12-20T11:05:28.527Z,976.2
2018-12-20T11:06:29.791Z,976.2
2018-12-20T11:07:31.069Z,976.1
2018-12-20T11:08:32.475Z,976.1
2018-12-20T11:09:33.798Z,976.1
2018-12-20T11:10:35.196Z,976.2
2018-12-20T11:11:36.601Z,976.2
2018-12-20T11:12:38.079Z,976.2
2018-12-20T11:13:39.358Z,976.1
2018-12-20T11:14:40.685Z,976.2
2018-12-20T11:15:42.279Z,976.2
2018-12-20T11:16:43.585Z,976.1
2018-12-20T11:17:44.865Z,976.2
2018-12-20T11:18:46.152Z,976.2
2018-12-20T11:19:49.330Z,976.2
2018-12-20T11:20:50.628Z,976.2
2018-12-20T11:21:51.908Z,976.1
2018-12-20T11:22:53.169Z,976.2
2018-12-20T11:23:57.720Z,976.2
2018-12-20T11:25:02.245Z,976.2
2018-12-20T11:26:03.523Z,976.1
2018-12-20T11:27:04.798Z,976.2
2018-12-20T11:28:06.858Z,976.2
2018-12-20T11:29:10.146Z,976.2
2018-12-20T11:30:11.429Z,976.2
2018-12-20T11:31:12.697Z,976.1
2018-12-20T11:32:14.236Z,976.1
2018-12-20T11:33:15.609Z,976.1
2018-12-20T11:34:16.919Z,976.1
2018-12-20T11:35:21.408Z,976
2018-12-20T11:36:27.758Z,976
2018-12-20T11:37:29.047Z,976
2018-12-20T11:38:30.661Z,976.1
2018-12-20T11:39:32.285Z,976.1
2018-12-20T11:40:33.783Z,976
2018-12-20T11:41:38.173Z,976.1
2018-12-20T11:42:39.449Z,976.1
2018-12-20T11:43:40.757Z,976.1
2018-12-20T11:44:42.024Z,976
2018-12-20T11:45:43.349Z,976
2018-12-20T11:46:44.723Z,975.8
2018-12-20T11:47:46.911Z,975.9
2018-12-20T11:48:48.360Z,975.9
2018-12-20T11:49:52.072Z,976.1
2018-12-20T11:50:53.382Z,976
2018-12-20T11:52:00.701Z,975.9
2018-12-20T11:53:01.945Z,976.1
2018-12-20T11:54:03.349Z,976
2018-12-20T11:55:04.629Z,976
2018-12-20T11:56:07.246Z,976.1
2018-12-20T11:57:08.527Z,976.1
2018-12-20T11:58:09.787Z,976.2
2018-12-20T11:59:13.936Z,976.2
2018-12-20T12:00:15.178Z,976.1
2018-12-20T12:01:16.515Z,976.2
2018-12-20T12:02:25.292Z,976
2018-12-20T12:03:26.623Z,976.2
2018-12-20T12:04:27.922Z,976
2018-12-20T12:05:29.539Z,976.1
2018-12-20T12:06:32.081Z,976.1
2018-12-20T12:07:33.365Z,976
2018-12-20T12:08:34.675Z,976
2018-12-20T12:09:36.003Z,975.9
2018-12-20T12:10:37.263Z,975.9
2018-12-20T12:11:38.600Z,975.9
2018-12-20T12:12:39.874Z,975.9
2018-12-20T12:13:41.273Z,975.9
2018-12-20T12:14:42.555Z,976
2018-12-20T12:15:43.831Z,976
2018-12-20T12:16:45.513Z,976
2018-12-20T12:17:55.089Z,976.1
2018-12-20T12:18:56.356Z,976
2018-12-20T12:19:59.265Z,976
2018-12-20T12:21:00.578Z,976
2018-12-20T12:22:04.357Z,976.1
2018-12-20T12:23:05.635Z,976.1
2018-12-20T12:24:06.936Z,976
2018-12-20T12:25:08.270Z,976
2018-12-20T12:26:09.927Z,976
2018-12-20T12:27:13.401Z,976
2018-12-20T12:28:14.787Z,975.9
2018-12-20T12:29:16.053Z,976
2018-12-20T12:30:17.329Z,976
2018-12-20T12:31:18.669Z,976
2018-12-20T12:32:19.981Z,976
2018-12-20T12:33:21.344Z,976
2018-12-20T12:34:24.255Z,975.9
2018-12-20T12:35:25.535Z,976
2018-12-20T12:36:26.814Z,976
2018-12-20T12:37:28.129Z,976
2018-12-20T12:38:29.390Z,976
2018-12-20T12:39:30.690Z,976
2018-12-20T12:40:32.036Z,976
2018-12-20T12:41:33.315Z,975.9
2018-12-20T12:42:34.674Z,976
2018-12-20T12:43:35.987Z,976
2018-12-20T12:44:37.376Z,976
2018-12-20T12:45:38.670Z,976
2018-12-20T12:46:42.664Z,976
2018-12-20T12:47:44.219Z,976
2018-12-20T12:48:45.542Z,976
2018-12-20T12:49:46.863Z,975.9
2018-12-20T12:50:51.162Z,976
2018-12-20T12:51:54.036Z,976
2018-12-20T12:52:55.712Z,976
2018-12-20T12:53:59.390Z,976
2018-12-20T12:55:00.659Z,976
2018-12-20T12:56:04.364Z,975.9
2018-12-20T12:57:07.086Z,975.9
2018-12-20T12:58:08.416Z,975.9
2018-12-20T12:59:09.915Z,976
2018-12-20T13:00:12.738Z,975.9
2018-12-20T13:01:16.420Z,976
2018-12-20T13:02:18.357Z,976
2018-12-20T13:03:19.865Z,976
2018-12-20T13:04:23.482Z,976
2018-12-20T13:05:24.723Z,976
2018-12-20T13:06:28.687Z,976
2018-12-20T13:07:29.968Z,976
2018-12-20T13:08:31.320Z,975.9
2018-12-20T13:09:32.649Z,975.9
2018-12-20T13:10:33.916Z,976
2018-12-20T13:11:35.213Z,976
2018-12-20T13:12:36.526Z,976
2018-12-20T13:13:37.873Z,976
2018-12-20T13:14:39.169Z,975.9
2018-12-20T13:15:40.483Z,976
2018-12-20T13:16:44.693Z,975.7
2018-12-20T13:17:46.027Z,975.9
2018-12-20T13:18:50.337Z,976
2018-12-20T13:19:56.665Z,975.9
2018-12-20T13:20:58.215Z,976
2018-12-20T13:21:59.523Z,976.1
2018-12-20T13:23:01.354Z,976
2018-12-20T13:24:02.813Z,976
2018-12-20T13:25:07.558Z,976.1